Latest Weather Observations for Ben Nevis

IDV60801

Issued at 5:22 pm EST Saturday 20 July 2024 (issued every 10 minutes, with the page automatically refreshed every 10 minutes)

About weather observations | Map of weather stations | Latest weather observations for VIC | Other Formats
Station Details ID: 079101 Name: BEN NEVIS Lat: -37.23 Lon: 143.20 Height: 875.0 m
Data from the previous 72 hours. | See also: Recent months at Ben Nevis
Date/Time
EST
Temp
°C
App
Temp
°C
Dew
Point
°C
Rel
Hum
%
Delta-T
°C
Wind Press
QNH
hPa
Press
MSL
hPa
Rain since
9am
mm
Dir  Spd
km/h
Gust
km/h
Spd
kts
Gust
kts
20/05:00pm 3.6 -4.4 3.6 100 0.0 WSW 35 59 19 32 - - 1.8
20/04:31pm 4.0 -5.1 4.0 100 0.0 WSW 41 59 22 32 - - 1.8
20/04:30pm 4.0 -5.5 4.0 100 0.0 WSW 43 59 23 32 - - 1.8
20/04:00pm 4.2 -5.2 4.2 100 0.0 WSW 43 70 23 38 - - 1.8
20/03:30pm 4.3 -5.1 4.3 100 0.0 WSW 43 67 23 36 - - 1.8
20/03:00pm 4.7 -5.2 4.7 100 0.0 WSW 46 69 25 37 - - 1.8
20/02:30pm 4.4 -5.6 4.4 100 0.0 WSW 46 70 25 38 - - 1.6
20/02:00pm 4.5 -5.1 4.5 100 0.0 WSW 44 67 24 36 - - 1.0
20/01:30pm 4.1 -6.7 4.1 100 0.0 WSW 50 76 27 41 - - 0.6
20/01:00pm 4.4 -5.6 4.4 100 0.0 WSW 46 76 25 41 - - 0.4
20/12:30pm 4.3 -7.2 4.3 100 0.0 WSW 54 89 29 48 - - 0.4
20/12:13pm 4.3 -5.7 4.3 100 0.0 WSW 46 89 25 48 - - 0.4
20/12:00pm 4.1 -5.6 4.1 100 0.0 WSW 44 69 24 37 - - 0.4
20/11:44am 3.9 -4.8 3.9 100 0.0 WSW 39 70 21 38 - - 0.2
20/11:32am 3.4 -4.1 3.4 100 0.0 WSW 32 50 17 27 - - 0.2
20/11:30am 3.4 -4.1 3.4 100 0.0 WSW 32 44 17 24 - - 0.2
20/11:00am 2.8 -3.7 2.8 100 0.0 W 26 43 14 23 - - 0.2
20/10:30am 2.6 -2.8 2.6 100 0.0 W 20 33 11 18 - - 0.0
20/10:00am 2.3 -3.5 2.3 100 0.0 W 22 48 12 26 - - 0.0
20/09:30am 2.1 -3.4 2.1 100 0.0 W 20 37 11 20 - - 0.0
20/09:00am 1.9 -3.6 1.9 100 0.0 W 20 33 11 18 - - 18.0
20/08:30am 1.9 -3.4 1.9 100 0.0 W 19 41 10 22 - - 18.0
20/08:02am 1.7 -5.3 1.7 100 0.0 W 28 48 15 26 - - 17.8
20/08:00am 1.7 -5.0 1.7 100 0.0 W 26 48 14 26 - - 17.8
20/07:30am 1.8 -3.5 1.8 100 0.0 W 19 39 10 21 - - 17.8
20/07:00am 2.1 -4.5 2.1 100 0.0 W 26 48 14 26 - - 17.8
20/06:30am 2.6 -1.4 2.6 100 0.0 W 13 26 7 14 - - 17.8
20/06:00am 2.7 -3.4 2.7 100 0.0 W 24 39 13 21 - - 17.8
20/05:30am 2.9 -1.8 2.9 100 0.0 W 17 35 9 19 - - 17.4
20/05:00am 2.8 -2.3 2.8 100 0.0 W 19 35 10 19 - - 17.4
20/04:30am 3.1 -2.0 3.1 100 0.0 W 19 39 10 21 - - 17.0
20/04:00am 3.4 -1.3 3.4 100 0.0 NW 17 33 9 18 - - 16.8
20/03:30am 3.8 -0.8 3.8 100 0.0 NNW 17 39 9 21 - - 16.6
20/03:00am 4.0 -0.5 4.0 100 0.0 N 17 39 9 21 - - 16.6
20/02:30am 4.2 -0.7 4.2 100 0.0 NNW 19 44 10 24 - - 16.2
20/02:00am 4.3 -0.2 4.3 100 0.0 N 17 37 9 20 - - 15.4
20/01:30am 4.4 -0.4 4.4 100 0.0 NNW 19 46 10 25 - - 15.0
20/01:00am 4.4 -0.6 4.4 100 0.0 N 20 43 11 23 - - 14.4
20/12:30am 4.5 -1.3 4.5 100 0.0 NNW 24 61 13 33 - - 14.0
20/12:08am 4.5 -2.0 4.5 100 0.0 NNW 28 54 15 29 - - 13.8
20/12:00am 4.5 -1.3 4.5 100 0.0 NNW 24 46 13 25 - - 13.8
 
Date/Time
EST
Temp
°C
App
Temp
°C
Dew
Point
°C
Rel
Hum
%
Delta-T
°C
Wind Press
QNH
hPa
Press
MSL
hPa
Rain since
9am
mm
Dir  Spd
km/h
Gust
km/h
Spd
kts
Gust
kts
19/11:30pm 4.5 -2.4 4.5 100 0.0 NNW 30 61 16 33 - - 13.8
19/11:00pm 4.5 -2.8 4.5 100 0.0 NNW 32 61 17 33 - - 13.8
19/10:43pm 4.5 -3.0 4.5 100 0.0 NNW 33 74 18 40 - - 13.8
19/10:30pm 4.4 -2.5 4.4 100 0.0 NNW 30 56 16 30 - - 13.4
19/10:00pm 4.2 -3.2 4.2 100 0.0 NNW 32 56 17 30 - - 12.6
19/09:30pm 4.1 -3.5 4.1 100 0.0 NNW 33 57 18 31 - - 11.6
19/09:00pm 4.2 -4.1 4.2 100 0.0 N 37 70 20 38 - - 11.0
19/08:30pm 4.2 -4.1 4.2 100 0.0 N 37 78 20 42 - - 10.4
19/08:00pm 4.0 -4.0 4.0 100 0.0 N 35 65 19 35 - - 10.2
19/07:30pm 4.0 -3.6 4.0 100 0.0 N 33 65 18 35 - - 9.2
19/07:00pm 4.0 -3.0 4.0 100 0.0 N 30 59 16 32 - - 8.0
19/06:30pm 4.0 -3.0 4.0 100 0.0 N 30 52 16 28 - - 7.2
19/06:00pm 4.0 -3.0 4.0 100 0.0 N 30 63 16 34 - - 6.4
19/05:49pm 4.1 -2.5 4.1 100 0.0 N 28 52 15 28 - - 6.0
19/05:30pm 4.0 -2.3 4.0 100 0.0 N 26 39 14 21 - - 5.0
19/05:00pm 4.0 -2.3 4.0 100 0.0 N 26 41 14 22 - - 3.8
19/04:30pm 3.9 -2.0 3.9 100 0.0 N 24 43 13 23 - - 2.8
19/04:00pm 4.1 -2.1 4.1 100 0.0 N 26 46 14 25 - - 2.0
19/03:57pm 4.1 -2.5 4.1 100 0.0 N 28 46 15 25 - - 2.0
19/03:30pm 4.2 -1.6 4.2 100 0.0 N 24 48 13 26 - - 1.6
19/03:00pm 4.0 -1.9 4.0 100 0.0 NNW 24 44 13 24 - - 1.2
19/02:30pm 3.9 -2.0 3.9 100 0.0 NNW 24 41 13 22 - - 0.8
19/02:00pm 4.1 -1.8 4.1 100 0.0 N 24 44 13 24 - - 0.2
19/01:30pm 4.1 -1.8 4.1 100 0.0 N 24 41 13 22 - - 0.0
19/01:00pm 4.3 -0.8 4.2 99 0.0 N 20 39 11 21 - - 0.0
19/12:30pm 4.5 -0.6 4.1 97 0.2 N 20 37 11 20 - - 0.0
19/12:00pm 4.1 -1.1 3.7 97 0.2 N 20 46 11 25 - - 0.0
19/11:30am 4.0 -1.6 3.4 96 0.3 N 22 37 12 20 - - 0.0
19/11:00am 3.7 -1.5 3.3 97 0.2 N 20 35 11 19 - - 0.0
19/10:30am 3.6 -2.0 3.3 98 0.1 N 22 37 12 20 - - 0.0
19/10:00am 3.4 -2.6 3.1 98 0.1 N 24 39 13 21 - - 0.0
19/09:30am 3.2 -2.1 3.2 100 0.0 N 20 39 11 21 - - 0.0
19/09:00am 3.2 -2.8 3.2 100 0.0 N 24 50 13 27 - - 0.0
19/08:30am 3.1 -2.6 3.0 99 0.0 NNW 22 43 12 23 - - 0.0
19/08:00am 2.9 -3.2 2.9 100 0.0 N 24 37 13 20 - - 0.0
19/07:30am 2.6 -3.5 2.6 100 0.0 N 24 43 13 23 - - 0.0
19/07:00am 2.3 -3.9 2.3 100 0.0 N 24 48 13 26 - - 0.0
19/06:30am 2.4 -3.8 2.4 100 0.0 N 24 46 13 25 - - 0.0
19/06:00am 2.2 -4.0 2.2 100 0.0 N 24 44 13 24 - - 0.0
19/05:30am 2.2 -3.2 2.2 100 0.0 N 20 37 11 20 - - 0.0
19/05:00am 2.0 -4.2 2.0 100 0.0 NNW 24 43 13 23 - - 0.0
19/04:30am 2.0 -4.2 2.0 100 0.0 NNW 24 48 13 26 - - 0.0
19/04:00am 2.0 -4.2 2.0 100 0.0 NNW 24 41 13 22 - - 0.0
19/03:30am 2.1 -3.7 2.1 100 0.0 NNW 22 37 12 20 - - 0.0
19/03:00am 2.4 -3.0 2.4 100 0.0 N 20 35 11 19 - - 0.0
19/02:30am 2.3 -4.3 2.2 99 0.0 NNW 26 46 14 25 - - 0.0
19/02:00am 2.3 -3.5 2.3 100 0.0 NNW 22 43 12 23 - - 0.0
19/01:30am 2.4 -3.4 2.3 99 0.0 NNW 22 41 12 22 - - 0.0
19/01:00am 2.4 -3.0 2.4 100 0.0 NNW 20 35 11 19 - - 0.0
19/12:30am 2.5 -2.3 2.5 100 0.0 NNW 17 32 9 17 - - 0.0
19/12:00am 2.5 -2.7 2.5 100 0.0 NNW 19 32 10 17 - - 0.0
 
Date/Time
EST
Temp
°C
App
Temp
°C
Dew
Point
°C
Rel
Hum
%
Delta-T
°C
Wind Press
QNH
hPa
Press
MSL
hPa
Rain since
9am
mm
Dir  Spd
km/h
Gust
km/h
Spd
kts
Gust
kts
18/11:30pm 2.5 -1.9 2.5 100 0.0 NNW 15 24 8 13 - - 0.0
18/11:00pm 2.6 -0.3 2.6 100 0.0 NNE 7 15 4 8 - - 0.0
18/10:30pm 3.1 0.3 3.1 100 0.0 N 7 15 4 8 - - 0.0
18/10:00pm 3.2 0.0 3.2 100 0.0 NNW 9 20 5 11 - - 0.0
18/09:30pm 3.3 0.1 3.3 100 0.0 NNW 9 22 5 12 - - 0.0
18/09:00pm 3.3 -0.2 3.3 100 0.0 WNW 11 24 6 13 - - 0.0
18/08:30pm 3.2 -0.4 3.2 100 0.0 WNW 11 19 6 10 - - 0.0
18/08:00pm 2.9 -0.7 2.9 100 0.0 WNW 11 20 6 11 - - 0.0
18/07:30pm 2.9 -0.3 2.9 100 0.0 NW 9 15 5 8 - - 0.0
18/07:00pm 2.8 0.1 2.8 100 0.0 WNW 6 11 3 6 - - 0.0
18/06:30pm 2.8 0.1 2.8 100 0.0 WNW 6 11 3 6 - - 0.0
18/06:00pm 2.8 -0.4 2.8 100 0.0 W 9 17 5 9 - - 0.0
18/05:30pm 3.1 -0.9 3.0 99 0.0 W 13 17 7 9 - - 0.0
18/05:00pm 3.6 -1.0 3.6 100 0.0 WSW 17 28 9 15 - - 0.0
18/04:30pm 4.0 -1.1 4.0 100 0.0 WSW 20 32 11 17 - - 0.0
18/04:00pm 4.0 -1.9 4.0 100 0.0 WSW 24 33 13 18 - - 0.0
18/03:30pm 4.5 -0.3 4.5 100 0.0 WSW 19 24 10 13 - - 0.0
18/03:00pm 4.6 0.2 4.6 100 0.0 SW 17 24 9 13 - - 0.0
18/02:30pm 4.4 0.3 4.4 100 0.0 SW 15 28 8 15 - - 0.0
18/02:00pm 4.5 -0.3 4.5 100 0.0 SW 19 26 10 14 - - 0.0
18/01:30pm 4.1 -0.4 4.1 100 0.0 SW 17 24 9 13 - - 0.0
18/01:00pm 3.9 -0.3 3.9 100 0.0 SW 15 22 8 12 - - 0.0
18/12:30pm 3.8 -0.4 3.8 100 0.0 WSW 15 24 8 13 - - 0.0
18/12:00pm 3.5 -1.1 3.5 100 0.0 SW 17 24 9 13 - - 0.0
18/11:30am 3.0 -2.1 3.0 100 0.0 SW 19 28 10 15 - - 0.0
18/11:00am 3.4 -1.6 3.4 100 0.0 SW 19 32 10 17 - - 0.0
18/10:30am 2.9 -2.4 2.9 100 0.0 SSW 20 32 11 17 - - 0.0
18/10:00am 2.7 -2.1 2.7 100 0.0 SW 17 28 9 15 - - 0.0
18/09:30am 2.1 -3.2 2.1 100 0.0 SSW 19 30 10 16 - - 0.0
18/09:00am 2.2 -3.0 2.2 100 0.0 SSW 19 33 10 18 - - 5.4
18/08:30am 2.0 -3.9 2.0 100 0.0 SSW 22 35 12 19 - - 5.4
18/08:00am 2.1 -3.2 2.1 100 0.0 SSW 19 30 10 16 - - 5.4
18/07:30am 2.2 -3.6 2.2 100 0.0 SSW 22 35 12 19 - - 5.4
18/07:00am 2.2 -3.6 2.2 100 0.0 SSW 22 33 12 18 - - 5.2
18/06:30am 2.1 -3.7 2.1 100 0.0 SSW 22 37 12 20 - - 5.2
18/06:00am 2.0 -4.6 2.0 100 0.0 SSW 26 41 14 22 - - 5.2
18/05:30am 2.0 -4.6 2.0 100 0.0 SSW 26 43 14 23 - - 5.2
18/05:00am 2.0 -4.2 2.0 100 0.0 SSW 24 41 13 22 - - 5.2
18/04:30am 2.2 -3.6 2.2 100 0.0 SSW 22 39 12 21 - - 5.2
18/04:00am 2.3 -4.3 2.3 100 0.0 SSW 26 41 14 22 - - 5.2
18/03:30am 2.3 -4.6 2.3 100 0.0 SSW 28 43 15 23 - - 5.2
18/03:00am 2.4 -4.5 2.4 100 0.0 SSW 28 48 15 26 - - 5.2
18/02:52am 2.4 -4.5 2.4 100 0.0 SSW 28 48 15 26 - - 5.2
18/02:30am 2.5 -3.6 2.5 100 0.0 SSW 24 43 13 23 - - 5.2
18/02:00am 2.6 -3.9 2.6 100 0.0 SSW 26 43 14 23 - - 5.0
18/01:30am 2.7 -3.8 2.7 100 0.0 SSW 26 41 14 22 - - 5.0
18/01:00am 2.7 -3.8 2.7 100 0.0 SSW 26 44 14 24 - - 4.8
18/12:30am 2.8 -3.7 2.8 100 0.0 SSW 26 44 14 24 - - 4.8
18/12:00am 2.8 -4.1 2.8 100 0.0 SSW 28 44 15 24 - - 4.8
 
Date/Time
EST
Temp
°C
App
Temp
°C
Dew
Point
°C
Rel
Hum
%
Delta-T
°C
Wind Press
QNH
hPa
Press
MSL
hPa
Rain since
9am
mm
Dir  Spd
km/h
Gust
km/h
Spd
kts
Gust
kts
17/11:30pm 3.1 -3.7 3.1 100 0.0 SSW 28 46 15 25 - - 4.8
17/11:11pm 3.1 -3.7 3.1 100 0.0 SSW 28 52 15 28 - - 4.8
17/11:00pm 3.1 -3.7 3.1 100 0.0 SSW 28 44 15 24 - - 4.8
17/10:50pm 2.9 -3.9 2.9 100 0.0 SSW 28 46 15 25 - - 4.8
17/10:30pm 2.9 -4.3 2.9 100 0.0 SSW 30 46 16 25 - - 4.8
17/10:00pm 3.1 -5.4 3.1 100 0.0 SSW 37 57 20 31 - - 4.8
17/09:30pm 2.9 -5.6 2.9 100 0.0 S 37 57 20 31 - - 4.8
17/09:00pm 3.2 -5.3 3.2 100 0.0 S 37 57 20 31 - - 4.8
17/08:50pm 3.2 -5.3 3.2 100 0.0 S 37 59 20 32 - - 4.8
17/08:30pm 3.9 -4.1 3.9 100 0.0 SSW 35 50 19 27 - - 4.8
17/08:09pm 3.9 -3.5 3.9 100 0.0 SSW 32 50 17 27 - - 4.8
17/08:00pm 3.9 -3.7 3.9 100 0.0 SSW 33 48 18 26 - - 4.8
17/07:30pm 4.2 -3.2 4.2 100 0.0 SSW 32 57 17 31 - - 4.8
17/07:00pm 4.5 -2.0 4.5 100 0.0 SSW 28 48 15 26 - - 4.8
17/06:30pm 4.7 -2.8 4.7 100 0.0 SSW 33 56 18 30 - - 4.6
17/06:00pm 4.9 -1.6 4.9 100 0.0 SSW 28 52 15 28 - - 4.4
17/05:34pm 5.1 -1.3 5.1 100 0.0 SSW 28 46 15 25 - - 4.0
17/05:30pm 5.3 -0.3 5.3 100 0.0 SSW 24 43 13 23 - - 3.8

Other formats

Comma delimited format used in spreadsheet applications
http://www.bom.gov.au/fwo/IDV60801/IDV60801.94835.axf

JavaScript Object Notation format (JSON) in row-major order
http://www.bom.gov.au/fwo/IDV60801/IDV60801.94835.json

Data quality

Most of these data are generated automatically and are frequently updated. Quality checks on data are not normally performed. It is possible for incorrect values to appear. Refer to information at About Latest Weather Observations and please check the disclaimer before using these data.